Huachuca City, AZ (85616)

09:40 AM MST del 02 Settembre 2014 (GMT -0700)
Lower Huachuca City | Change Station
CLOSE
Current Station
Stazione meteo personale
Location: Huachuca City, AZ
Altitudine: 4251 ft
Stazioni meteo nelle vicinanze

Alt. 4251 ft 31.64 °N, 110.34 °W | Updated 11 seconds ago

Sereno
Sereno
87.5 °F
Sembra 85 °F
N
2.7
Vento Variabile Vento da NE
Gusts 4.0 mph

Oggi
Massima -- | Minima -- °F
--% Possibilità di precip.
Ieri
Massima -- | Minima -- °F
Precip. -- in
5:57 AM 6:43 PM
Primo quarto, 53% visible
Pressione 29.94 in
Visibilità 10.0 miglia
Nuvole Sereno
Indice di calore 85 °F
Punto di rugiada 50 °F
Umidità 28%
Piovosità 0.00 in
Spessore del manto nevoso Non disponibile.
Raggi UV 5 fuori da 12
Polline 6.90 fuori da 12
Qualità dell'aria Non disponibile.
Flu Activity Non disponibile.
METAR KFHU 021555Z 36004KT 10SM CLR 28/09 A3014 RMK SLP137

More Conditions Fewer Conditions

Pressione 29.94 in
Visibilità 10.0 miglia
Nuvole Sereno
Indice di calore 85 °F
Punto di rugiada 50 °F
Umidità 28%
Piovosità 0.00 in
Spessore del manto nevoso Non disponibile.
Raggi UV 5 fuori da 12
Polline 6.90 fuori da 12
Qualità dell'aria Non disponibile.
Flu Activity Non disponibile.
METAR KFHU 021555Z 36004KT 10SM CLR 28/09 A3014 RMK SLP137

More Conditions Fewer Conditions

10-Day Weather Forecast

Almanac

Astronomia

Sep. 02, 2014 Alba Tramonto
Ora attuale 05:57 MST 18:43 MST
Crepuscolo civile 05:32 MST 19:08 MST
Crepuscolo nautico 05:03 MST 19:37 MST
Crepuscolo astronomico 04:33 MST 20:07 MST
Luna 13:19 MST Nessun tramonto lunare
Estensione della luce visibile 13h 35m
Lunghezza del giorno
12h 46m
Tomorrow will be 1m 51s shorter.
Primo quarto, 53% of the Moon is Illuminated
Oggi
Primo quarto
Set 8
Luna piena
Set 15
Ultimo quarto
Set 24
Nuovo
Ott 1
Primo quarto

Gli estremi di oggi

State Highs State Lows

Community

WunderPhotos

Upload Photos

1,749,716 foto caricate!

Nearby

Profondità neve

Stazione Profondità Altitudine
Wildcat 0 in 7850 ft
Workman Creek 1 in 6900 ft
Beaver Head 22 in 7990 ft
Coronado Trail 0 in 8400 ft
Maverick Fork 0 in 9200 ft

Attività sismica

Città  Distanza Mag. Data & Ora
Non sono state riportate attività sismiche nelle vicinanze.
Minimo Magnitudo Mostrato è 2.5.

Temperature delle acque costiere

Località Temperatura
Nessun dato dalle stazioni

Stazioni meteo nelle vicinanze